createdAt,value
2023-03-20T00:00:28.870Z,89.46
2023-03-20T00:02:30.685Z,89.6
2023-03-20T00:04:32.209Z,89.74
2023-03-20T00:06:33.620Z,89.89
2023-03-20T00:10:36.151Z,90.31
2023-03-20T00:12:37.980Z,90.46
2023-03-20T00:14:39.607Z,90.5
2023-03-20T00:16:40.895Z,90.59
2023-03-20T00:20:43.979Z,91.01
2023-03-20T00:22:45.701Z,91.15
2023-03-20T00:24:46.978Z,91.31
2023-03-20T00:26:48.665Z,91.35
2023-03-20T00:28:50.030Z,91.37
2023-03-20T00:30:51.643Z,91.43
2023-03-20T00:32:53.049Z,91.86
2023-03-20T00:34:54.278Z,91.92
2023-03-20T00:36:55.246Z,92.07
2023-03-20T00:38:56.903Z,92.01
2023-03-20T00:40:58.541Z,92.07
2023-03-20T00:42:59.707Z,91.99
2023-03-20T00:45:00.674Z,92
2023-03-20T00:47:02.050Z,92.43
2023-03-20T00:49:03.303Z,92.69
2023-03-20T00:51:05.105Z,92.7
2023-03-20T00:53:06.575Z,92.76
2023-03-20T00:55:07.977Z,93.29
2023-03-20T00:57:09.926Z,93.23
2023-03-20T00:59:11.148Z,93.18
2023-03-20T01:03:14.663Z,93.19
2023-03-20T01:05:16.587Z,93.12
2023-03-20T01:07:18.191Z,93.16
2023-03-20T01:09:19.829Z,93.11
2023-03-20T01:11:20.844Z,93.24
2023-03-20T01:13:21.841Z,93.28
2023-03-20T01:15:22.800Z,93.52
2023-03-20T01:17:24.347Z,93.6
2023-03-20T01:19:25.654Z,93.64
2023-03-20T01:21:27.359Z,93.65
2023-03-20T01:23:29.252Z,93.74
2023-03-20T01:25:30.578Z,93.96
2023-03-20T01:27:32.214Z,94.01
2023-03-20T01:29:33.886Z,94.2
2023-03-20T01:31:35.551Z,94.21
2023-03-20T01:33:36.688Z,94.1
2023-03-20T01:35:38.316Z,94.02
2023-03-20T01:37:39.661Z,94.06
2023-03-20T01:39:41.108Z,94.09
2023-03-20T01:41:42.263Z,94.06
2023-03-20T01:45:45.016Z,94.03
2023-03-20T01:47:45.964Z,93.98
2023-03-20T01:49:46.979Z,93.97
2023-03-20T01:51:48.582Z,94.02
2023-03-20T01:53:50.097Z,94.01
2023-03-20T01:55:51.442Z,93.97
2023-03-20T01:57:53.219Z,94
2023-03-20T01:59:54.970Z,93.94
2023-03-20T02:01:55.966Z,93.84
2023-03-20T02:03:57.839Z,93.83
2023-03-20T02:05:58.905Z,93.83
2023-03-20T02:08:00.251Z,93.79
2023-03-20T02:10:02.027Z,93.84
2023-03-20T02:12:03.000Z,93.83
2023-03-20T02:14:04.059Z,93.82
2023-03-20T02:16:05.197Z,93.78
2023-03-20T02:18:06.445Z,93.74
2023-03-20T02:20:07.431Z,93.72
2023-03-20T02:22:09.341Z,93.73
2023-03-20T02:24:10.329Z,93.72
2023-03-20T02:26:11.296Z,93.68
2023-03-20T02:28:12.703Z,93.73
2023-03-20T02:30:14.172Z,93.71
2023-03-20T02:34:16.577Z,93.74
2023-03-20T02:36:17.897Z,93.74
2023-03-20T02:38:18.826Z,93.71
2023-03-20T02:40:20.237Z,93.74
2023-03-20T02:44:22.996Z,93.74
2023-03-20T02:46:24.030Z,93.75
2023-03-20T02:48:25.168Z,93.72
2023-03-20T02:50:26.885Z,93.68
2023-03-20T02:52:28.797Z,93.64
2023-03-20T02:54:29.755Z,93.65
2023-03-20T02:56:31.126Z,93.67
2023-03-20T02:58:32.734Z,93.69
2023-03-20T03:00:33.706Z,93.62
2023-03-20T03:02:43.587Z,93.6
2023-03-20T03:04:37.170Z,93.64
2023-03-20T03:06:38.919Z,93.5
2023-03-20T03:08:40.547Z,93.45
2023-03-20T03:10:41.731Z,93.48
2023-03-20T03:12:43.173Z,93.46
2023-03-20T03:14:44.466Z,93.48
2023-03-20T03:16:46.259Z,93.47
2023-03-20T03:18:56.416Z,93.46
2023-03-20T03:20:48.460Z,93.48
2023-03-20T03:22:49.536Z,93.47
2023-03-20T03:26:52.864Z,93.4
2023-03-20T03:28:54.465Z,93.39
2023-03-20T03:30:56.231Z,93.34
2023-03-20T03:32:58.082Z,93.24
2023-03-20T03:34:59.455Z,93.27
2023-03-20T03:37:00.997Z,93.24
2023-03-20T03:39:02.924Z,93.19
2023-03-20T03:41:04.076Z,93.21
2023-03-20T03:43:05.823Z,93.14
2023-03-20T03:45:07.079Z,93.17
2023-03-20T03:45:50.866Z,93.18
2023-03-20T03:47:52.445Z,93.13
2023-03-20T03:49:54.053Z,93.13
2023-03-20T03:53:56.644Z,93.13
2023-03-20T03:55:57.913Z,93.05
2023-03-20T03:57:59.530Z,93.05
2023-03-20T04:00:01.365Z,93.06
2023-03-20T04:04:04.970Z,93.1
2023-03-20T04:06:05.903Z,93.05
2023-03-20T04:08:07.173Z,93.08
2023-03-20T04:10:08.844Z,92.98
2023-03-20T04:12:10.104Z,92.85
2023-03-20T04:14:11.782Z,92.83
2023-03-20T04:16:13.540Z,92.76
2023-03-20T04:18:15.260Z,92.76
2023-03-20T04:20:16.970Z,92.78
2023-03-20T04:22:18.333Z,92.76
2023-03-20T04:24:20.054Z,92.75
2023-03-20T04:26:21.180Z,92.7
2023-03-20T04:28:22.711Z,92.65
2023-03-20T04:30:24.419Z,92.63
2023-03-20T04:32:25.589Z,92.67
2023-03-20T04:36:29.107Z,92.64
2023-03-20T04:38:30.681Z,92.69
2023-03-20T04:40:32.250Z,92.78
2023-03-20T04:42:33.980Z,92.75
2023-03-20T04:46:36.438Z,92.73
2023-03-20T04:48:37.602Z,92.66
2023-03-20T04:52:40.246Z,92.52
2023-03-20T04:54:41.298Z,92.62
2023-03-20T04:56:42.573Z,92.62
2023-03-20T04:58:44.299Z,92.69
2023-03-20T05:02:48.035Z,92.55
2023-03-20T05:04:49.649Z,92.41
2023-03-20T05:06:50.796Z,92.4
2023-03-20T05:08:51.778Z,92.45
2023-03-20T05:10:53.206Z,92.47
2023-03-20T05:12:54.874Z,92.56
2023-03-20T05:14:55.977Z,92.59
2023-03-20T05:16:57.624Z,92.5
2023-03-20T05:18:59.208Z,92.39
2023-03-20T05:21:00.495Z,92.3
2023-03-20T05:23:03.990Z,92.36
2023-03-20T05:25:03.954Z,92.38
2023-03-20T05:27:05.622Z,92.48
2023-03-20T05:29:07.217Z,92.34
2023-03-20T05:31:08.649Z,92.31
2023-03-20T05:35:11.288Z,92.28
2023-03-20T05:37:12.816Z,92.19
2023-03-20T05:39:14.368Z,92.21
2023-03-20T05:41:15.753Z,92.2
2023-03-20T05:45:17.866Z,92.2
2023-03-20T05:47:19.096Z,92.27
2023-03-20T05:49:20.892Z,92.28
2023-03-20T05:51:22.605Z,92.32
2023-03-20T05:53:24.223Z,92.28
2023-03-20T05:55:25.294Z,92.25
2023-03-20T05:57:27.003Z,92.24
2023-03-20T05:59:28.445Z,92.21
2023-03-20T06:01:29.955Z,92.18
2023-03-20T06:03:31.256Z,92.02
2023-03-20T06:05:32.459Z,92.05
2023-03-20T06:07:33.501Z,92.08
2023-03-20T06:09:34.911Z,92.08
2023-03-20T06:11:37.529Z,92.05
2023-03-20T06:13:37.997Z,91.98
2023-03-20T06:15:39.495Z,92.03
2023-03-20T06:17:40.380Z,91.95
2023-03-20T06:19:41.616Z,91.82
2023-03-20T06:21:43.096Z,91.92
2023-03-20T06:23:44.629Z,91.82
2023-03-20T06:27:47.208Z,91.86
2023-03-20T06:29:48.629Z,91.76
2023-03-20T06:31:49.821Z,91.72
2023-03-20T06:33:50.890Z,91.53
2023-03-20T06:35:52.232Z,91.6
2023-03-20T06:37:53.714Z,91.6
2023-03-20T06:39:54.666Z,91.43
2023-03-20T06:41:55.800Z,91.46
2023-03-20T06:43:57.493Z,91.42
2023-03-20T06:45:58.457Z,91.49
2023-03-20T06:48:00.104Z,91.38
2023-03-20T06:50:01.180Z,91.41
2023-03-20T06:52:02.586Z,91.43
2023-03-20T06:54:04.376Z,91.4
2023-03-20T06:56:06.294Z,91.43
2023-03-20T07:00:08.635Z,91.2
2023-03-20T07:02:09.695Z,91.22
2023-03-20T07:04:10.813Z,91.22
2023-03-20T07:06:11.874Z,91.16
2023-03-20T07:10:15.263Z,91.01
2023-03-20T07:12:16.244Z,90.95
2023-03-20T07:16:19.286Z,91.04
2023-03-20T07:18:20.821Z,91.08
2023-03-20T07:20:22.189Z,91.12
2023-03-20T07:22:23.750Z,91.2
2023-03-20T07:26:27.012Z,91.07
2023-03-20T07:28:28.472Z,91.03
2023-03-20T07:30:29.868Z,91.09
2023-03-20T07:32:30.990Z,91.12
2023-03-20T07:34:32.146Z,91.16
2023-03-20T07:36:33.647Z,91.26
2023-03-20T07:38:35.062Z,91.1
2023-03-20T07:40:36.981Z,91.09
2023-03-20T07:42:38.205Z,90.9
2023-03-20T07:44:39.423Z,90.78
2023-03-20T07:46:41.084Z,90.66
2023-03-20T07:48:42.815Z,90.79
2023-03-20T07:50:43.961Z,90.72
2023-03-20T07:52:44.997Z,90.76
2023-03-20T07:54:46.232Z,90.5
2023-03-20T07:56:48.043Z,90.46
2023-03-20T07:58:49.321Z,90.58
2023-03-20T08:00:50.754Z,90.69
2023-03-20T08:02:52.162Z,90.72
2023-03-20T08:04:53.154Z,90.78
2023-03-20T08:08:55.545Z,90.79
2023-03-20T08:10:56.959Z,90.88
2023-03-20T08:12:58.446Z,90.63
2023-03-20T08:15:00.179Z,90.75
2023-03-20T08:17:13.506Z,90.59
2023-03-20T08:19:02.421Z,90.52
2023-03-20T08:21:03.795Z,90.32
2023-03-20T08:23:05.065Z,90.31
2023-03-20T08:25:06.711Z,90.35
2023-03-20T08:27:07.833Z,90.34
2023-03-20T08:29:10.140Z,90.29
2023-03-20T08:31:11.859Z,90.28
2023-03-20T08:33:13.367Z,90.27
2023-03-20T08:35:29.961Z,90.18
2023-03-20T08:37:16.388Z,90.23
2023-03-20T08:41:19.110Z,90.04
2023-03-20T08:43:20.742Z,90.08
2023-03-20T08:45:21.827Z,90.26
2023-03-20T08:47:23.684Z,90.26
2023-03-20T08:51:26.705Z,90.25
2023-03-20T08:53:28.230Z,90.3
2023-03-20T08:55:29.377Z,90.4
2023-03-20T08:57:31.179Z,90.36
2023-03-20T08:59:32.394Z,90.47
2023-03-20T09:01:48.121Z,90.2
2023-03-20T09:03:34.653Z,90.18
2023-03-20T09:05:36.452Z,90.21
2023-03-20T09:07:37.628Z,89.69
2023-03-20T09:09:38.815Z,89.79
2023-03-20T09:11:40.127Z,88.84
2023-03-20T09:13:41.976Z,88.98
2023-03-20T09:15:42.900Z,88.53
2023-03-20T09:17:44.689Z,88.45
2023-03-20T09:19:45.705Z,88.33
2023-03-20T09:21:47.028Z,87.87
2023-03-20T09:23:48.879Z,87.46
2023-03-20T09:25:50.775Z,87.02
2023-03-20T09:27:52.317Z,86.26
2023-03-20T09:29:53.612Z,85.98
2023-03-20T09:31:54.786Z,86.1
2023-03-20T09:33:56.612Z,85.68
2023-03-20T09:35:58.171Z,86.3
2023-03-20T09:40:01.192Z,86.45
2023-03-20T09:42:02.930Z,86.42
2023-03-20T09:44:04.117Z,86.55
2023-03-20T09:46:05.983Z,86.84
2023-03-20T09:50:08.502Z,86.85
2023-03-20T09:52:10.132Z,86.27
2023-03-20T09:54:11.845Z,86.55
2023-03-20T09:56:13.203Z,86.63
2023-03-20T09:58:14.732Z,86.13
2023-03-20T10:00:15.733Z,86.65
2023-03-20T10:02:17.514Z,86.68
2023-03-20T10:04:18.835Z,86.69
2023-03-20T10:06:20.679Z,85.99
2023-03-20T10:08:22.421Z,85.99
2023-03-20T10:10:23.982Z,86.26
2023-03-20T10:12:25.148Z,86.86
2023-03-20T10:14:26.057Z,86.26
2023-03-20T10:16:27.165Z,85.75
2023-03-20T10:18:28.289Z,85.65
2023-03-20T10:20:29.979Z,86.77
2023-03-20T10:22:31.341Z,86.74
2023-03-20T10:24:32.576Z,86.63
2023-03-20T10:26:34.188Z,86.3
2023-03-20T10:28:35.347Z,86.73
2023-03-20T10:31:20.463Z,86.72
2023-03-20T10:33:21.869Z,87.1
2023-03-20T10:35:23.541Z,86.91
2023-03-20T10:37:24.464Z,87.04
2023-03-20T10:39:25.998Z,87.31
2023-03-20T10:41:27.435Z,87.55
2023-03-20T10:43:28.784Z,87.81
2023-03-20T10:45:29.846Z,87.9
2023-03-20T10:47:31.184Z,88.21
2023-03-20T10:49:33.502Z,88.29
2023-03-20T10:51:34.502Z,88.54
2023-03-20T10:53:36.249Z,88.62
2023-03-20T10:55:37.567Z,88.72
2023-03-20T10:59:40.308Z,89.15
2023-03-20T11:01:41.465Z,89.07
2023-03-20T11:03:43.061Z,89.06
2023-03-20T11:05:44.774Z,88.77
2023-03-20T11:09:46.545Z,88.98
2023-03-20T11:11:48.095Z,88.82
2023-03-20T11:13:49.870Z,88.74
2023-03-20T11:15:51.286Z,88.68
2023-03-20T11:17:52.373Z,88.63
2023-03-20T11:19:54.022Z,88.41
2023-03-20T11:21:55.577Z,88.42
2023-03-20T11:23:57.212Z,88.49
2023-03-20T11:25:58.966Z,88.86
2023-03-20T11:28:00.435Z,88.74
2023-03-20T11:30:02.005Z,88.95
2023-03-20T11:32:03.193Z,89.2
2023-03-20T11:34:04.449Z,89.68
2023-03-20T11:36:06.141Z,89.99
2023-03-20T11:38:07.193Z,90.44
2023-03-20T11:42:10.776Z,90.76
2023-03-20T11:44:12.674Z,90.88
2023-03-20T11:46:13.797Z,90.92
2023-03-20T11:48:14.959Z,91.09
2023-03-20T11:52:18.094Z,91.24
2023-03-20T11:54:19.405Z,91.38
2023-03-20T11:56:20.712Z,91.42
2023-03-20T11:58:22.579Z,91.37
2023-03-20T12:00:24.241Z,91.54
2023-03-20T12:02:26.192Z,91.85
2023-03-20T12:04:27.052Z,91.67
2023-03-20T12:08:29.826Z,91.79
2023-03-20T12:10:31.595Z,92.06
2023-03-20T12:12:32.683Z,92.08
2023-03-20T12:14:34.068Z,91.81
2023-03-20T12:16:35.207Z,91.79
2023-03-20T12:18:36.507Z,91.76
2023-03-20T12:20:37.813Z,92.02
2023-03-20T12:22:38.553Z,91.86
2023-03-20T12:24:40.086Z,91.68
2023-03-20T12:26:41.053Z,91.78
2023-03-20T12:28:42.123Z,91.52
2023-03-20T12:30:43.872Z,91.44
2023-03-20T12:32:44.901Z,91.14
2023-03-20T12:34:46.259Z,91.18
2023-03-20T12:36:47.785Z,91.41
2023-03-20T12:38:49.032Z,91.24
2023-03-20T12:40:50.575Z,91.11
2023-03-20T12:42:51.885Z,91.24
2023-03-20T12:44:53.527Z,90.99
2023-03-20T12:46:54.848Z,90.79
2023-03-20T12:50:57.925Z,90.93
2023-03-20T12:52:59.535Z,90.96
2023-03-20T12:55:00.738Z,91.07
2023-03-20T12:57:02.268Z,91
2023-03-20T12:59:03.901Z,90.7
2023-03-20T13:01:05.146Z,90.36
2023-03-20T13:03:06.417Z,90.1
2023-03-20T13:05:07.792Z,89.94
2023-03-20T13:07:17.568Z,89.52
2023-03-20T13:09:10.575Z,88.98
2023-03-20T13:11:11.919Z,88.92
2023-03-20T13:13:13.411Z,88.25
2023-03-20T13:15:14.929Z,87.14
2023-03-20T13:17:16.505Z,86.73
2023-03-20T13:19:17.924Z,86.57
2023-03-20T13:23:20.434Z,85.12
2023-03-20T13:25:21.889Z,85.02
2023-03-20T13:27:22.882Z,85.27
2023-03-20T13:29:25.790Z,84.66
2023-03-20T13:33:25.922Z,83.96
2023-03-20T13:35:27.271Z,83.91
2023-03-20T13:37:28.828Z,83.12
2023-03-20T13:39:30.481Z,82.15
2023-03-20T13:41:32.306Z,81.92
2023-03-20T13:43:34.502Z,82.05
2023-03-20T13:45:35.417Z,81
2023-03-20T13:47:37.753Z,80.39
2023-03-20T13:49:39.032Z,79.52
2023-03-20T13:51:39.952Z,79.51
2023-03-20T13:53:41.252Z,79.36
2023-03-20T13:55:42.525Z,79.46
2023-03-20T13:57:43.966Z,79.58
2023-03-20T13:59:45.524Z,79.26
2023-03-20T14:01:47.098Z,79.33
2023-03-20T14:03:48.966Z,77.77
2023-03-20T14:05:50.560Z,78.3
2023-03-20T14:07:52.333Z,78
2023-03-20T14:09:53.575Z,75.97
2023-03-20T14:11:54.618Z,76.64
2023-03-20T14:15:56.970Z,76.23
2023-03-20T14:17:58.057Z,76.42
2023-03-20T14:22:00.320Z,76.46
2023-03-20T14:24:01.769Z,75.07
2023-03-20T14:26:02.935Z,75.18
2023-03-20T14:28:04.094Z,75.01
2023-03-20T14:32:06.256Z,75.61
2023-03-20T14:34:08.098Z,75.23
2023-03-20T14:36:09.490Z,75.37
2023-03-20T14:38:10.963Z,75
2023-03-20T14:40:12.067Z,75.4
2023-03-20T14:42:13.250Z,75.14
2023-03-20T14:44:14.738Z,75.21
2023-03-20T14:46:16.472Z,75.09
2023-03-20T14:48:17.583Z,74.68
2023-03-20T14:50:18.995Z,74.79
2023-03-20T14:52:20.354Z,74.36
2023-03-20T14:54:22.004Z,73.77
2023-03-20T14:56:23.189Z,73.92
2023-03-20T14:58:24.624Z,72.61
2023-03-20T15:00:26.480Z,73.55
2023-03-20T15:02:27.585Z,72.72
2023-03-20T15:04:28.836Z,72.53
2023-03-20T15:06:30.664Z,71.9
2023-03-20T15:08:32.016Z,72.62
2023-03-20T15:10:33.791Z,72.4
2023-03-20T15:14:35.936Z,71.86
2023-03-20T15:16:37.491Z,71.9
2023-03-20T15:18:47.446Z,72.37
2023-03-20T15:20:39.552Z,71.5
2023-03-20T15:22:41.139Z,71.55
2023-03-20T15:24:42.379Z,71.71
2023-03-20T15:26:44.020Z,72.29
2023-03-20T15:28:45.694Z,72.06
2023-03-20T15:30:47.085Z,72.08
2023-03-20T15:32:49.006Z,72.24
2023-03-20T15:34:49.929Z,72.14
2023-03-20T15:36:51.443Z,72.87
2023-03-20T15:38:53.075Z,72.14
2023-03-20T15:40:54.554Z,72.47
2023-03-20T15:42:55.531Z,72.39
2023-03-20T15:46:57.650Z,72.67
2023-03-20T15:48:59.360Z,72.52
2023-03-20T15:51:01.223Z,72.55
2023-03-20T15:53:02.265Z,72.5
2023-03-20T15:57:05.358Z,72.63
2023-03-20T15:59:06.198Z,72.6
2023-03-20T16:03:08.751Z,72.28
2023-03-20T16:05:09.801Z,72.63
2023-03-20T16:07:10.909Z,72.21
2023-03-20T16:09:12.714Z,73.05
2023-03-20T16:13:15.298Z,72.54
2023-03-20T16:15:16.238Z,73.06
2023-03-20T16:17:17.879Z,72.64
2023-03-20T16:19:19.721Z,72.73
2023-03-20T16:21:20.851Z,72.7
2023-03-20T16:23:21.837Z,72.94
2023-03-20T16:25:23.245Z,73.41
2023-03-20T16:27:24.823Z,72.84
2023-03-20T16:29:26.368Z,72.48
2023-03-20T16:31:27.714Z,72.24
2023-03-20T16:33:29.014Z,73.1
2023-03-20T16:35:30.469Z,72.43
2023-03-20T16:37:31.545Z,72.86
2023-03-20T16:39:32.508Z,72.8
2023-03-20T16:41:34.195Z,73.05
2023-03-20T16:43:36.212Z,73.32
2023-03-20T16:45:37.269Z,72.72
2023-03-20T16:47:39.190Z,73.23
2023-03-20T16:49:40.311Z,72.93
2023-03-20T16:51:41.255Z,73.38
2023-03-20T16:55:44.025Z,73.57
2023-03-20T16:57:45.685Z,73.72
2023-03-20T16:59:47.286Z,73.73
2023-03-20T17:01:48.575Z,73.11
2023-03-20T17:03:49.612Z,71.98
2023-03-20T17:05:50.763Z,72.24
2023-03-20T17:07:52.641Z,71.85
2023-03-20T17:09:53.817Z,70.79
2023-03-20T17:11:54.845Z,71.16
2023-03-20T17:13:55.906Z,70.9
2023-03-20T17:15:57.451Z,71.37
2023-03-20T17:16:41.292Z,71.71
2023-03-20T17:18:43.037Z,71.56
2023-03-20T17:22:45.893Z,70.7
2023-03-20T17:24:47.755Z,70.51
2023-03-20T17:26:49.627Z,70.89
2023-03-20T17:28:51.147Z,71.14
2023-03-20T17:30:52.640Z,71.27
2023-03-20T17:32:53.735Z,70.73
2023-03-20T17:34:55.205Z,70.79
2023-03-20T17:36:56.917Z,70.88
2023-03-20T17:38:58.298Z,70.55
2023-03-20T17:40:59.734Z,71.04
2023-03-20T17:43:01.212Z,71.03
2023-03-20T17:45:02.268Z,71.2
2023-03-20T17:47:03.846Z,71.55
2023-03-20T17:49:05.265Z,71.09
2023-03-20T17:51:07.999Z,70.47
2023-03-20T17:53:08.618Z,70.49
2023-03-20T17:55:09.575Z,70.45
2023-03-20T17:57:10.787Z,70.09
2023-03-20T17:59:12.166Z,70.48
2023-03-20T18:01:13.225Z,70.31
2023-03-20T18:05:15.461Z,70.59
2023-03-20T18:07:17.020Z,70.5
2023-03-20T18:09:18.235Z,70.46
2023-03-20T18:11:19.971Z,69.73
2023-03-20T18:13:21.053Z,69.22
2023-03-20T18:15:22.330Z,69.48
2023-03-20T18:17:23.976Z,68.8
2023-03-20T18:19:25.788Z,68.57
2023-03-20T18:21:26.831Z,68.63
2023-03-20T18:23:28.283Z,68.31
2023-03-20T18:25:29.262Z,68.55
2023-03-20T18:27:30.841Z,68.86
2023-03-20T18:29:32.700Z,68.86
2023-03-20T18:31:33.884Z,69.34
2023-03-20T18:33:35.504Z,69.29
2023-03-20T18:37:38.479Z,70.21
2023-03-20T18:39:40.166Z,71.39
2023-03-20T18:41:41.781Z,70.64
2023-03-20T18:43:42.740Z,69.63
2023-03-20T18:47:45.485Z,70.42
2023-03-20T18:49:47.071Z,70.92
2023-03-20T18:51:48.217Z,70.64
2023-03-20T18:53:49.774Z,70.08
2023-03-20T18:55:51.159Z,69.31
2023-03-20T18:57:52.157Z,68.82
2023-03-20T18:59:53.405Z,68.34
2023-03-20T19:01:55.246Z,68.42
2023-03-20T19:03:56.947Z,68.86
2023-03-20T19:05:58.612Z,68.11
2023-03-20T19:07:59.533Z,67.6
2023-03-20T19:10:00.879Z,67.75
2023-03-20T19:12:01.880Z,67.21
2023-03-20T19:14:02.808Z,67.38
2023-03-20T19:16:04.428Z,67.05
2023-03-20T19:18:06.187Z,67.33
2023-03-20T19:20:07.313Z,67.39
2023-03-20T19:22:18.938Z,66.81
2023-03-20T19:24:10.357Z,67.26
2023-03-20T19:26:11.335Z,67.14
2023-03-20T19:28:17.302Z,67.24
2023-03-20T19:30:14.450Z,66.49
2023-03-20T19:32:15.673Z,66.48
2023-03-20T19:34:47.369Z,65.29
2023-03-20T19:36:18.573Z,65.74
2023-03-20T19:38:19.932Z,66.73
2023-03-20T19:40:20.850Z,66.76
2023-03-20T19:46:38.992Z,66.08
2023-03-20T19:48:27.196Z,66.11
2023-03-20T19:50:30.250Z,65.89
2023-03-20T19:52:29.789Z,65.79
2023-03-20T19:54:31.025Z,65.73
2023-03-20T19:56:32.935Z,65.52
2023-03-20T19:58:34.296Z,65.86
2023-03-20T20:01:11.476Z,66.33
2023-03-20T20:02:37.352Z,66.55
2023-03-20T20:04:38.835Z,66.99
2023-03-20T20:06:41.492Z,66.43
2023-03-20T20:08:46.748Z,66.56
2023-03-20T20:10:42.890Z,66.61
2023-03-20T20:12:44.719Z,66
2023-03-20T20:14:47.003Z,66.59
2023-03-20T20:16:47.317Z,66.73
2023-03-20T20:18:48.475Z,66.21
2023-03-20T20:21:28.683Z,65.69
2023-03-20T20:22:51.468Z,65.67
2023-03-20T20:24:52.910Z,65.14
2023-03-20T20:28:55.051Z,66.36
2023-03-20T20:30:56.746Z,65.88
2023-03-20T20:33:03.379Z,65.73
2023-03-20T20:39:02.630Z,66.12
2023-03-20T20:41:03.757Z,66.2
2023-03-20T20:43:09.960Z,65.9
2023-03-20T20:45:07.360Z,66.45
2023-03-20T20:47:09.093Z,66.2
2023-03-20T20:49:18.984Z,66.57
2023-03-20T20:51:11.999Z,66.97
2023-03-20T20:53:13.676Z,66.28
2023-03-20T20:55:22.430Z,67.07
2023-03-20T20:57:16.165Z,67.27
2023-03-20T21:01:19.904Z,67.14
2023-03-20T21:03:21.726Z,67.28
2023-03-20T21:05:22.846Z,67.02
2023-03-20T21:07:24.764Z,66.62
2023-03-20T21:11:27.255Z,66.46
2023-03-20T21:13:28.260Z,66.91
2023-03-20T21:15:29.310Z,66.24
2023-03-20T21:17:30.284Z,67
2023-03-20T21:19:31.918Z,67.38
2023-03-20T21:21:33.424Z,67.54
2023-03-20T21:23:34.744Z,67.79
2023-03-20T21:25:40.433Z,67.43
2023-03-20T21:27:38.034Z,67.63
2023-03-20T21:29:39.595Z,67.46
2023-03-20T21:31:41.197Z,67.5
2023-03-20T21:33:42.831Z,67.59
2023-03-20T21:35:44.603Z,68.02
2023-03-20T21:39:47.728Z,68.3
2023-03-20T21:43:50.208Z,68.25
2023-03-20T21:46:40.573Z,68.49
2023-03-20T21:48:36.375Z,67.98
2023-03-20T21:50:41.760Z,68.47
2023-03-20T21:54:46.269Z,69.13
2023-03-20T21:56:37.638Z,68.84
2023-03-20T22:02:13.911Z,68.94
2023-03-20T22:05:01.191Z,69.12
2023-03-20T22:08:58.260Z,69.61
2023-03-20T22:11:01.176Z,70.15
2023-03-20T22:14:58.877Z,70.71
2023-03-20T22:19:05.603Z,70.26
2023-03-20T22:20:58.773Z,70.65
2023-03-20T22:23:04.730Z,70.78
2023-03-20T22:27:17.367Z,71.28
2023-03-20T22:29:29.028Z,71.62
2023-03-20T22:31:10.463Z,71.97
2023-03-20T22:33:30.402Z,72.23
2023-03-20T22:35:04.776Z,72.51
2023-03-20T22:37:24.523Z,72.97
2023-03-20T22:39:10.659Z,72.93
2023-03-20T22:41:30.584Z,73.48
2023-03-20T22:43:00.045Z,73.42
2023-03-20T22:44:59.496Z,73.6
2023-03-20T22:46:46.134Z,74.14
2023-03-20T22:48:35.473Z,74.7
2023-03-20T22:52:49.345Z,74.81
2023-03-20T22:54:39.106Z,74.85
2023-03-20T22:56:40.285Z,74.62
2023-03-20T22:58:41.255Z,74.36
2023-03-20T23:00:42.898Z,74.48
2023-03-20T23:02:43.830Z,74.77
2023-03-20T23:04:45.285Z,74.42
2023-03-20T23:06:46.238Z,74.33
2023-03-20T23:08:52.130Z,74.65
2023-03-20T23:10:49.371Z,74.32
2023-03-20T23:12:50.746Z,74.59
2023-03-20T23:14:52.526Z,74.44
2023-03-20T23:16:54.230Z,74.14
2023-03-20T23:18:55.902Z,74.15
2023-03-20T23:20:57.840Z,74.47
2023-03-20T23:22:59.605Z,74.94
2023-03-20T23:25:09.895Z,75.25
2023-03-20T23:27:02.584Z,75.55
2023-03-20T23:29:03.985Z,75.36
2023-03-20T23:31:10.282Z,75.34
2023-03-20T23:35:08.777Z,75.55
2023-03-20T23:37:09.773Z,75.41
2023-03-20T23:39:10.886Z,75.55
2023-03-20T23:41:12.137Z,75.51
2023-03-20T23:43:13.090Z,75.69
2023-03-20T23:45:20.331Z,75.24
2023-03-20T23:47:20.234Z,75.27
2023-03-20T23:49:16.863Z,74.96
2023-03-20T23:51:18.212Z,74.93
2023-03-20T23:55:21.349Z,74.45
2023-03-20T23:57:22.629Z,75.01
2023-03-20T23:59:24.109Z,74.2
